createdAt,value
2019-06-10T16:01:27.139Z,50.60
2019-06-10T16:03:56.964Z,52.30
2019-06-10T16:06:27.166Z,51.70
2019-06-10T16:08:58.551Z,51.70
2019-06-10T16:11:28.980Z,51.90
2019-06-10T16:13:59.134Z,52.30
2019-06-10T16:16:29.351Z,52.50
2019-06-10T16:18:59.502Z,52.60
2019-06-10T16:21:29.675Z,52.40
2019-06-10T16:24:02.571Z,52.50
2019-06-10T16:26:31.841Z,52.20
2019-06-10T16:29:02.759Z,52.50
2019-06-10T16:31:32.980Z,52.40
2019-06-10T16:34:04.425Z,52.60
2019-06-10T16:36:34.648Z,53.00
2019-06-10T16:39:06.862Z,53.00
2019-06-10T16:41:38.019Z,53.20
2019-06-10T16:44:08.195Z,53.40
2019-06-10T16:46:38.380Z,53.60
2019-06-10T16:49:08.475Z,54.00
2019-06-10T16:51:38.662Z,54.30
2019-06-10T16:54:08.772Z,54.30
2019-06-10T16:56:38.912Z,54.60
2019-06-10T16:59:09.005Z,54.70
2019-06-10T17:01:39.196Z,54.90
2019-06-10T17:04:09.374Z,55.00
2019-06-10T17:06:42.013Z,55.50
2019-06-10T17:09:13.467Z,56.70
2019-06-10T17:11:43.865Z,56.80
2019-06-10T17:14:14.021Z,57.10
2019-06-10T17:16:44.356Z,57.30
2019-06-10T17:19:14.492Z,57.80
2019-06-10T17:21:44.712Z,57.80
2019-06-10T17:24:14.902Z,57.50
2019-06-10T17:26:45.114Z,57.60
2019-06-10T17:29:15.227Z,57.50
2019-06-10T17:31:45.506Z,57.60
2019-06-10T17:34:15.649Z,57.70
2019-06-10T17:36:45.899Z,57.60
2019-06-10T17:39:16.135Z,57.90
2019-06-10T17:41:46.252Z,58.20
2019-06-10T17:44:16.425Z,58.10
2019-06-10T17:46:46.693Z,59.00
2019-06-10T17:49:16.838Z,58.40
2019-06-10T17:51:47.077Z,58.60
2019-06-10T17:54:17.364Z,59.10
2019-06-10T17:56:47.602Z,59.00
2019-06-10T17:59:17.891Z,59.10
2019-06-10T18:01:52.266Z,59.20
2019-06-10T18:04:22.625Z,59.30
2019-06-10T18:06:53.450Z,59.50
2019-06-10T18:09:24.866Z,59.80
2019-06-10T18:11:55.639Z,59.80
2019-06-10T18:14:25.963Z,59.70
2019-06-10T18:16:56.247Z,59.70
2019-06-10T18:19:26.441Z,59.60
2019-06-10T18:21:56.631Z,59.80
2019-06-10T18:24:28.805Z,59.70
2019-06-10T18:27:02.140Z,60.00
2019-06-10T18:29:33.678Z,60.10
2019-06-10T18:32:03.527Z,60.50
2019-06-10T18:34:37.986Z,60.40
2019-06-10T18:37:08.374Z,60.30
2019-06-10T18:39:39.824Z,60.50
2019-06-10T18:42:12.512Z,60.70
2019-06-10T18:44:41.919Z,60.80
2019-06-10T18:47:13.405Z,61.20
2019-06-10T18:49:43.715Z,60.80
2019-06-10T18:52:13.802Z,61.00
2019-06-10T18:54:44.000Z,61.20
2019-06-10T18:57:14.176Z,61.50
2019-06-10T18:59:44.345Z,61.40
2019-06-10T19:02:14.439Z,61.60
2019-06-10T19:04:44.823Z,61.70
2019-06-10T19:07:14.982Z,61.90
2019-06-10T19:09:48.016Z,61.70
2019-06-10T19:12:17.147Z,61.70
2019-06-10T19:14:47.350Z,61.80
2019-06-10T19:17:17.689Z,61.90
2019-06-10T19:19:47.876Z,61.90
2019-06-10T19:22:18.068Z,62.00
2019-06-10T19:24:48.219Z,62.10
2019-06-10T19:27:19.500Z,62.20
2019-06-10T19:29:51.319Z,62.30
2019-06-10T19:32:21.435Z,62.40
2019-06-10T19:34:52.415Z,62.70
2019-06-10T19:37:22.770Z,62.70
2019-06-10T19:39:54.140Z,62.70
2019-06-10T19:42:24.440Z,62.80
2019-06-10T19:44:54.584Z,63.00
2019-06-10T19:47:24.735Z,63.20
2019-06-10T19:49:56.506Z,63.40
2019-06-10T19:52:26.751Z,63.30
2019-06-10T19:54:57.028Z,63.30
2019-06-10T19:57:27.187Z,63.40
2019-06-10T20:00:08.466Z,63.50
2019-06-10T20:02:32.602Z,64.00
2019-06-10T20:05:02.295Z,64.10
2019-06-10T20:07:33.837Z,64.40
2019-06-10T20:10:04.466Z,64.40
2019-06-10T20:12:34.661Z,64.90
2019-06-10T20:15:05.512Z,64.70
2019-06-10T20:17:35.713Z,65.00
2019-06-10T20:20:07.137Z,64.70
2019-06-10T20:22:37.317Z,64.80
2019-06-10T20:25:07.519Z,65.10
2019-06-10T20:27:37.750Z,65.20
2019-06-10T20:30:23.511Z,65.10
2019-06-10T20:32:41.551Z,65.10
2019-06-10T20:35:12.869Z,65.30
2019-06-10T20:37:44.645Z,65.50
2019-06-10T20:40:15.464Z,65.60
2019-06-10T20:42:46.600Z,65.70
2019-06-10T20:45:16.814Z,65.70
2019-06-10T20:47:47.929Z,65.70
2019-06-10T20:50:18.926Z,65.80
2019-06-10T20:52:49.145Z,65.80
2019-06-10T20:55:19.398Z,66.10
2019-06-10T20:57:58.940Z,66.00
2019-06-10T21:00:34.322Z,66.00
2019-06-10T21:03:04.878Z,65.90
2019-06-10T21:05:35.165Z,66.00
2019-06-10T21:08:05.795Z,66.50
2019-06-10T21:10:37.025Z,66.30
2019-06-10T21:13:07.641Z,66.30
2019-06-10T21:15:37.962Z,66.40
2019-06-10T21:18:08.173Z,66.50
2019-06-10T21:20:38.390Z,67.10
2019-06-10T21:23:08.619Z,66.90
2019-06-10T21:25:38.821Z,67.40
2019-06-10T21:28:08.951Z,67.10
2019-06-10T21:30:44.750Z,67.40
2019-06-10T21:33:12.925Z,67.10
2019-06-10T21:35:46.589Z,67.10
2019-06-10T21:38:14.970Z,67.40
2019-06-10T21:40:46.626Z,67.40
2019-06-10T21:43:17.148Z,67.20
2019-06-10T21:45:53.311Z,67.30
2019-06-10T21:48:19.108Z,67.50
2019-06-10T21:50:54.219Z,67.60
2019-06-10T21:53:22.662Z,67.80
2019-06-10T21:55:53.969Z,67.90
2019-06-10T21:58:24.745Z,67.80
2019-06-10T22:01:08.313Z,67.70
2019-06-10T22:03:27.032Z,68.30
2019-06-10T22:05:57.211Z,68.10
2019-06-10T22:08:27.340Z,68.00
2019-06-10T22:10:57.489Z,68.00
2019-06-10T22:13:27.589Z,68.50
2019-06-10T22:15:57.813Z,68.30
2019-06-10T22:18:28.343Z,68.30
2019-06-10T22:20:58.555Z,68.40
2019-06-10T22:23:28.717Z,68.40
2019-06-10T22:25:58.848Z,68.30
2019-06-10T22:28:29.980Z,68.60
2019-06-10T22:31:18.077Z,68.30
2019-06-10T22:33:32.047Z,68.60
2019-06-10T22:36:02.479Z,68.30
2019-06-10T22:38:32.963Z,68.50
2019-06-10T22:41:03.460Z,68.60
2019-06-10T22:43:34.764Z,68.60
2019-06-10T22:46:05.047Z,68.60
2019-06-10T22:48:35.226Z,68.70
2019-06-10T22:51:05.506Z,69.10
2019-06-10T22:53:35.690Z,68.80
2019-06-10T22:56:05.823Z,68.70
2019-06-10T22:58:35.916Z,68.90
2019-06-10T23:01:08.963Z,68.80
2019-06-10T23:03:39.360Z,69.40
2019-06-10T23:06:09.563Z,69.30
2019-06-10T23:08:39.660Z,69.50
2019-06-10T23:11:09.920Z,69.30
2019-06-10T23:13:42.309Z,69.30
2019-06-10T23:16:12.985Z,69.30
2019-06-10T23:18:43.364Z,69.60
2019-06-10T23:21:13.541Z,69.40
2019-06-10T23:23:43.725Z,69.50
2019-06-10T23:26:13.949Z,69.60
2019-06-10T23:28:44.169Z,69.80
2019-06-10T23:31:14.415Z,70.20
2019-06-10T23:33:44.515Z,70.00
2019-06-10T23:36:14.850Z,69.80
2019-06-10T23:38:44.959Z,70.00
2019-06-10T23:41:15.181Z,70.00
2019-06-10T23:43:45.353Z,69.80
2019-06-10T23:46:15.694Z,70.10
2019-06-10T23:48:45.857Z,69.80
2019-06-10T23:51:16.397Z,69.90
2019-06-10T23:53:46.566Z,69.80
2019-06-10T23:56:16.763Z,69.80
2019-06-10T23:58:46.938Z,69.70
